sensor_id;sensor_type;location;lat;lon;timestamp;temperature;humidity
7206;DHT22;3644;53.480;10.004;2022-11-04T00:01:39;12.60;99.90
7206;DHT22;3644;53.480;10.004;2022-11-04T00:04:05;12.60;99.90
7206;DHT22;3644;53.480;10.004;2022-11-04T00:06:30;12.50;99.90
7206;DHT22;3644;53.480;10.004;2022-11-04T00:08:57;12.50;99.90
7206;DHT22;3644;53.480;10.004;2022-11-04T00:11:25;12.60;99.90
7206;DHT22;3644;53.480;10.004;2022-11-04T00:14:10;11.30;99.90
7206;DHT22;3644;53.480;10.004;2022-11-04T00:16:36;12.60;99.90
7206;DHT22;3644;53.480;10.004;2022-11-04T00:19:21;12.60;99.90
7206;DHT22;3644;53.480;10.004;2022-11-04T00:21:47;12.60;99.90
7206;DHT22;3644;53.480;10.004;2022-11-04T00:24:31;12.70;99.90
7206;DHT22;3644;53.480;10.004;2022-11-04T00:27:10;12.60;99.90
7206;DHT22;3644;53.480;10.004;2022-11-04T00:29:55;12.60;99.90
7206;DHT22;3644;53.480;10.004;2022-11-04T00:32:21;12.60;99.90
7206;DHT22;3644;53.480;10.004;2022-11-04T00:35:06;12.60;99.90
7206;DHT22;3644;53.480;10.004;2022-11-04T00:37:41;12.50;99.90
7206;DHT22;3644;53.480;10.004;2022-11-04T00:40:09;12.60;99.90
7206;DHT22;3644;53.480;10.004;2022-11-04T00:42:35;12.60;99.90
7206;DHT22;3644;53.480;10.004;2022-11-04T00:45:00;12.50;99.90
7206;DHT22;3644;53.480;10.004;2022-11-04T00:47:26;12.40;99.90
7206;DHT22;3644;53.480;10.004;2022-11-04T00:49:51;12.40;99.90
7206;DHT22;3644;53.480;10.004;2022-11-04T00:52:17;12.50;99.90
7206;DHT22;3644;53.480;10.004;2022-11-04T00:54:42;12.50;99.90
7206;DHT22;3644;53.480;10.004;2022-11-04T00:57:11;12.50;99.90
7206;DHT22;3644;53.480;10.004;2022-11-04T00:59:37;12.60;99.90
7206;DHT22;3644;53.480;10.004;2022-11-04T01:02:04;12.50;99.90
7206;DHT22;3644;53.480;10.004;2022-11-04T01:04:30;12.50;99.90
7206;DHT22;3644;53.480;10.004;2022-11-04T01:06:56;12.50;99.90
7206;DHT22;3644;53.480;10.004;2022-11-04T01:09:21;12.50;99.90
7206;DHT22;3644;53.480;10.004;2022-11-04T01:11:47;12.50;99.90
7206;DHT22;3644;53.480;10.004;2022-11-04T01:14:13;12.60;99.90
7206;DHT22;3644;53.480;10.004;2022-11-04T01:16:39;12.60;99.90
7206;DHT22;3644;53.480;10.004;2022-11-04T01:19:05;12.60;99.90
7206;DHT22;3644;53.480;10.004;2022-11-04T01:21:30;12.60;99.90
7206;DHT22;3644;53.480;10.004;2022-11-04T01:23:56;12.60;99.90
7206;DHT22;3644;53.480;10.004;2022-11-04T01:26:23;12.50;99.90
7206;DHT22;3644;53.480;10.004;2022-11-04T01:28:50;12.50;99.90
7206;DHT22;3644;53.480;10.004;2022-11-04T01:31:18;12.60;99.90
7206;DHT22;3644;53.480;10.004;2022-11-04T01:33:46;12.60;99.90
7206;DHT22;3644;53.480;10.004;2022-11-04T01:36:12;12.70;99.90
7206;DHT22;3644;53.480;10.004;2022-11-04T01:38:38;12.60;99.90
7206;DHT22;3644;53.480;10.004;2022-11-04T01:41:04;12.70;99.90
7206;DHT22;3644;53.480;10.004;2022-11-04T01:46:25;12.80;99.90
7206;DHT22;3644;53.480;10.004;2022-11-04T01:48:53;12.70;99.90
7206;DHT22;3644;53.480;10.004;2022-11-04T01:51:20;12.80;99.90
7206;DHT22;3644;53.480;10.004;2022-11-04T01:53:47;12.70;99.90
7206;DHT22;3644;53.480;10.004;2022-11-04T01:56:14;12.80;99.90
7206;DHT22;3644;53.480;10.004;2022-11-04T01:58:45;12.80;99.90
7206;DHT22;3644;53.480;10.004;2022-11-04T02:01:12;12.90;99.90
7206;DHT22;3644;53.480;10.004;2022-11-04T02:06:08;12.90;99.90
7206;DHT22;3644;53.480;10.004;2022-11-04T02:08:34;12.90;99.90
7206;DHT22;3644;53.480;10.004;2022-11-04T02:11:02;12.90;99.90
7206;DHT22;3644;53.480;10.004;2022-11-04T02:13:30;12.90;99.90
7206;DHT22;3644;53.480;10.004;2022-11-04T02:16:08;12.90;99.90
7206;DHT22;3644;53.480;10.004;2022-11-04T02:18:53;12.90;99.90
7206;DHT22;3644;53.480;10.004;2022-11-04T02:24:36;13.00;99.90
7206;DHT22;3644;53.480;10.004;2022-11-04T02:29:42;12.90;99.90
7206;DHT22;3644;53.480;10.004;2022-11-04T02:35:02;12.90;99.90
7206;DHT22;3644;53.480;10.004;2022-11-04T02:37:56;12.90;99.90
7206;DHT22;3644;53.480;10.004;2022-11-04T02:40:45;12.90;99.90
7206;DHT22;3644;53.480;10.004;2022-11-04T02:43:59;12.90;99.90
7206;DHT22;3644;53.480;10.004;2022-11-04T02:49:15;13.00;99.90
7206;DHT22;3644;53.480;10.004;2022-11-04T02:51:57;13.00;99.90
7206;DHT22;3644;53.480;10.004;2022-11-04T02:54:46;13.00;99.90
7206;DHT22;3644;53.480;10.004;2022-11-04T02:57:17;13.00;99.90
7206;DHT22;3644;53.480;10.004;2022-11-04T03:00:07;13.00;99.90
7206;DHT22;3644;53.480;10.004;2022-11-04T03:02:40;13.00;99.90
7206;DHT22;3644;53.480;10.004;2022-11-04T03:05:09;12.90;99.90
7206;DHT22;3644;53.480;10.004;2022-11-04T03:07:39;13.00;99.90
7206;DHT22;3644;53.480;10.004;2022-11-04T03:10:09;13.00;99.90
7206;DHT22;3644;53.480;10.004;2022-11-04T03:12:45;13.10;99.90
7206;DHT22;3644;53.480;10.004;2022-11-04T03:15:18;13.00;99.90
7206;DHT22;3644;53.480;10.004;2022-11-04T03:18:03;13.00;99.90
7206;DHT22;3644;53.480;10.004;2022-11-04T03:20:31;13.10;99.90
7206;DHT22;3644;53.480;10.004;2022-11-04T03:22:57;13.10;99.90
7206;DHT22;3644;53.480;10.004;2022-11-04T03:25:49;13.10;99.90
7206;DHT22;3644;53.480;10.004;2022-11-04T03:30:46;13.00;99.90
7206;DHT22;3644;53.480;10.004;2022-11-04T03:33:41;13.00;99.90
7206;DHT22;3644;53.480;10.004;2022-11-04T03:36:10;13.00;99.90
7206;DHT22;3644;53.480;10.004;2022-11-04T03:38:36;13.00;99.90
7206;DHT22;3644;53.480;10.004;2022-11-04T03:41:09;13.00;99.90
7206;DHT22;3644;53.480;10.004;2022-11-04T03:43:36;13.00;99.90
7206;DHT22;3644;53.480;10.004;2022-11-04T03:46:04;13.00;99.90
7206;DHT22;3644;53.480;10.004;2022-11-04T03:48:30;13.00;99.90
7206;DHT22;3644;53.480;10.004;2022-11-04T03:50:57;13.00;99.90
7206;DHT22;3644;53.480;10.004;2022-11-04T03:53:24;13.10;99.90
7206;DHT22;3644;53.480;10.004;2022-11-04T03:58:57;13.10;99.90
7206;DHT22;3644;53.480;10.004;2022-11-04T04:01:48;13.20;99.90
7206;DHT22;3644;53.480;10.004;2022-11-04T04:04:35;13.10;99.90
7206;DHT22;3644;53.480;10.004;2022-11-04T04:07:10;13.20;99.90
7206;DHT22;3644;53.480;10.004;2022-11-04T04:12:31;13.10;99.90
7206;DHT22;3644;53.480;10.004;2022-11-04T04:15:04;13.20;99.90
7206;DHT22;3644;53.480;10.004;2022-11-04T04:17:38;13.20;99.90
7206;DHT22;3644;53.480;10.004;2022-11-04T04:20:25;13.10;99.90
7206;DHT22;3644;53.480;10.004;2022-11-04T04:23:16;13.10;99.90
7206;DHT22;3644;53.480;10.004;2022-11-04T04:26:03;13.10;99.90
7206;DHT22;3644;53.480;10.004;2022-11-04T04:28:50;13.10;99.90
7206;DHT22;3644;53.480;10.004;2022-11-04T04:31:17;13.10;99.90
7206;DHT22;3644;53.480;10.004;2022-11-04T04:34:05;13.10;99.90
7206;DHT22;3644;53.480;10.004;2022-11-04T04:36:34;13.10;99.90
7206;DHT22;3644;53.480;10.004;2022-11-04T04:39:05;13.10;99.90
7206;DHT22;3644;53.480;10.004;2022-11-04T04:41:52;13.10;99.90
7206;DHT22;3644;53.480;10.004;2022-11-04T04:44:40;13.20;99.90
7206;DHT22;3644;53.480;10.004;2022-11-04T04:47:26;13.10;99.90
7206;DHT22;3644;53.480;10.004;2022-11-04T04:49:57;13.00;99.90
7206;DHT22;3644;53.480;10.004;2022-11-04T04:52:26;13.00;99.90
7206;DHT22;3644;53.480;10.004;2022-11-04T04:54:52;13.00;99.90
7206;DHT22;3644;53.480;10.004;2022-11-04T04:57:18;13.00;99.90
7206;DHT22;3644;53.480;10.004;2022-11-04T04:59:44;13.00;99.90
7206;DHT22;3644;53.480;10.004;2022-11-04T05:02:09;12.90;99.90
7206;DHT22;3644;53.480;10.004;2022-11-04T05:04:35;12.90;99.90
7206;DHT22;3644;53.480;10.004;2022-11-04T05:07:00;13.00;99.90
7206;DHT22;3644;53.480;10.004;2022-11-04T05:09:26;13.00;99.90
7206;DHT22;3644;53.480;10.004;2022-11-04T05:11:51;13.00;99.90
7206;DHT22;3644;53.480;10.004;2022-11-04T05:14:17;12.90;99.90
7206;DHT22;3644;53.480;10.004;2022-11-04T05:16:42;13.00;99.90
7206;DHT22;3644;53.480;10.004;2022-11-04T05:19:08;12.90;99.90
7206;DHT22;3644;53.480;10.004;2022-11-04T05:21:34;12.90;99.90
7206;DHT22;3644;53.480;10.004;2022-11-04T05:23:59;12.80;99.90
7206;DHT22;3644;53.480;10.004;2022-11-04T05:26:25;12.90;99.90
7206;DHT22;3644;53.480;10.004;2022-11-04T05:28:50;12.90;99.90
7206;DHT22;3644;53.480;10.004;2022-11-04T05:31:16;12.80;99.90
7206;DHT22;3644;53.480;10.004;2022-11-04T05:33:42;12.80;99.90
7206;DHT22;3644;53.480;10.004;2022-11-04T05:36:12;12.80;99.90
7206;DHT22;3644;53.480;10.004;2022-11-04T05:38:39;12.80;99.90
7206;DHT22;3644;53.480;10.004;2022-11-04T05:41:06;12.90;99.90
7206;DHT22;3644;53.480;10.004;2022-11-04T05:43:32;12.90;99.90
7206;DHT22;3644;53.480;10.004;2022-11-04T05:45:59;12.90;99.90
7206;DHT22;3644;53.480;10.004;2022-11-04T05:48:25;12.90;99.90
7206;DHT22;3644;53.480;10.004;2022-11-04T05:50:50;13.00;99.90
7206;DHT22;3644;53.480;10.004;2022-11-04T05:53:16;13.00;99.90
7206;DHT22;3644;53.480;10.004;2022-11-04T05:55:42;13.00;99.90
7206;DHT22;3644;53.480;10.004;2022-11-04T05:58:07;13.00;99.90
7206;DHT22;3644;53.480;10.004;2022-11-04T06:00:33;13.00;99.90
7206;DHT22;3644;53.480;10.004;2022-11-04T06:02:58;13.00;99.90
7206;DHT22;3644;53.480;10.004;2022-11-04T06:05:25;13.00;99.90
7206;DHT22;3644;53.480;10.004;2022-11-04T06:07:50;13.00;99.90
7206;DHT22;3644;53.480;10.004;2022-11-04T06:10:16;13.00;99.90
7206;DHT22;3644;53.480;10.004;2022-11-04T06:12:41;13.00;99.90
7206;DHT22;3644;53.480;10.004;2022-11-04T06:15:07;13.00;99.90
7206;DHT22;3644;53.480;10.004;2022-11-04T06:17:33;13.00;99.90
7206;DHT22;3644;53.480;10.004;2022-11-04T06:19:59;12.90;99.90
7206;DHT22;3644;53.480;10.004;2022-11-04T06:22:24;12.90;99.90
7206;DHT22;3644;53.480;10.004;2022-11-04T06:24:50;12.90;99.90
7206;DHT22;3644;53.480;10.004;2022-11-04T06:27:15;12.90;99.90
7206;DHT22;3644;53.480;10.004;2022-11-04T06:29:41;12.90;99.90
7206;DHT22;3644;53.480;10.004;2022-11-04T06:32:08;12.80;99.90
7206;DHT22;3644;53.480;10.004;2022-11-04T06:34:34;12.80;99.90
7206;DHT22;3644;53.480;10.004;2022-11-04T06:36:59;12.90;99.90
7206;DHT22;3644;53.480;10.004;2022-11-04T06:39:25;13.00;99.90
7206;DHT22;3644;53.480;10.004;2022-11-04T06:41:50;13.00;99.90
7206;DHT22;3644;53.480;10.004;2022-11-04T06:44:16;13.00;99.90
7206;DHT22;3644;53.480;10.004;2022-11-04T06:46:42;13.10;99.90
7206;DHT22;3644;53.480;10.004;2022-11-04T06:49:12;13.10;99.90
7206;DHT22;3644;53.480;10.004;2022-11-04T06:51:38;13.10;99.90
7206;DHT22;3644;53.480;10.004;2022-11-04T06:54:04;13.00;99.90
7206;DHT22;3644;53.480;10.004;2022-11-04T06:56:30;13.00;99.90
7206;DHT22;3644;53.480;10.004;2022-11-04T06:58:55;13.10;99.90
7206;DHT22;3644;53.480;10.004;2022-11-04T07:01:23;13.10;99.90
7206;DHT22;3644;53.480;10.004;2022-11-04T07:03:54;13.10;99.90
7206;DHT22;3644;53.480;10.004;2022-11-04T07:06:20;13.10;99.90
7206;DHT22;3644;53.480;10.004;2022-11-04T07:08:47;13.10;99.90
7206;DHT22;3644;53.480;10.004;2022-11-04T07:11:13;13.20;99.90
7206;DHT22;3644;53.480;10.004;2022-11-04T07:13:38;13.10;99.90
7206;DHT22;3644;53.480;10.004;2022-11-04T07:16:06;13.10;99.90
7206;DHT22;3644;53.480;10.004;2022-11-04T07:18:32;13.10;99.90
7206;DHT22;3644;53.480;10.004;2022-11-04T07:20:58;13.10;99.90
7206;DHT22;3644;53.480;10.004;2022-11-04T07:23:24;13.10;99.90
7206;DHT22;3644;53.480;10.004;2022-11-04T07:25:49;13.20;99.90
7206;DHT22;3644;53.480;10.004;2022-11-04T07:28:15;13.20;99.90
7206;DHT22;3644;53.480;10.004;2022-11-04T07:30:41;13.10;99.90
7206;DHT22;3644;53.480;10.004;2022-11-04T07:33:07;13.10;99.90
7206;DHT22;3644;53.480;10.004;2022-11-04T07:35:33;13.00;99.90
7206;DHT22;3644;53.480;10.004;2022-11-04T07:37:59;13.00;99.90
7206;DHT22;3644;53.480;10.004;2022-11-04T07:40:25;13.00;99.90
7206;DHT22;3644;53.480;10.004;2022-11-04T07:42:51;13.00;99.90
7206;DHT22;3644;53.480;10.004;2022-11-04T07:45:16;13.00;99.90
7206;DHT22;3644;53.480;10.004;2022-11-04T07:47:42;13.10;99.90
7206;DHT22;3644;53.480;10.004;2022-11-04T07:50:08;13.00;99.90
7206;DHT22;3644;53.480;10.004;2022-11-04T07:52:33;13.10;99.90
7206;DHT22;3644;53.480;10.004;2022-11-04T07:54:59;13.00;99.90
7206;DHT22;3644;53.480;10.004;2022-11-04T07:57:25;13.10;99.90
7206;DHT22;3644;53.480;10.004;2022-11-04T07:59:50;13.10;99.90
7206;DHT22;3644;53.480;10.004;2022-11-04T08:02:16;13.20;99.90
7206;DHT22;3644;53.480;10.004;2022-11-04T08:04:41;13.30;99.90
7206;DHT22;3644;53.480;10.004;2022-11-04T08:07:08;13.20;99.90
7206;DHT22;3644;53.480;10.004;2022-11-04T08:09:34;13.20;99.90
7206;DHT22;3644;53.480;10.004;2022-11-04T08:12:01;13.20;99.90
7206;DHT22;3644;53.480;10.004;2022-11-04T08:14:26;13.30;99.90
7206;DHT22;3644;53.480;10.004;2022-11-04T08:16:52;13.30;99.90
7206;DHT22;3644;53.480;10.004;2022-11-04T08:19:17;13.30;99.90
7206;DHT22;3644;53.480;10.004;2022-11-04T08:21:43;13.40;99.90
7206;DHT22;3644;53.480;10.004;2022-11-04T08:24:09;13.40;99.90
7206;DHT22;3644;53.480;10.004;2022-11-04T08:26:34;13.40;99.90
7206;DHT22;3644;53.480;10.004;2022-11-04T08:29:00;13.50;99.90
7206;DHT22;3644;53.480;10.004;2022-11-04T08:31:28;13.50;99.90
7206;DHT22;3644;53.480;10.004;2022-11-04T08:33:55;13.50;99.90
7206;DHT22;3644;53.480;10.004;2022-11-04T08:36:24;13.50;99.90
7206;DHT22;3644;53.480;10.004;2022-11-04T08:38:50;13.50;99.90
7206;DHT22;3644;53.480;10.004;2022-11-04T08:41:19;13.40;99.90
7206;DHT22;3644;53.480;10.004;2022-11-04T08:43:46;13.50;99.90
7206;DHT22;3644;53.480;10.004;2022-11-04T08:46:12;13.50;99.90
7206;DHT22;3644;53.480;10.004;2022-11-04T08:48:39;13.50;99.90
7206;DHT22;3644;53.480;10.004;2022-11-04T08:51:10;13.50;99.90
7206;DHT22;3644;53.480;10.004;2022-11-04T08:53:36;13.50;99.90
7206;DHT22;3644;53.480;10.004;2022-11-04T08:56:14;13.50;99.90
7206;DHT22;3644;53.480;10.004;2022-11-04T08:58:40;13.50;99.90
7206;DHT22;3644;53.480;10.004;2022-11-04T09:01:06;13.60;99.90
7206;DHT22;3644;53.480;10.004;2022-11-04T09:03:32;13.60;99.90
7206;DHT22;3644;53.480;10.004;2022-11-04T09:05:59;13.70;99.90
7206;DHT22;3644;53.480;10.004;2022-11-04T09:08:25;13.70;99.90
7206;DHT22;3644;53.480;10.004;2022-11-04T09:10:50;13.80;99.90
7206;DHT22;3644;53.480;10.004;2022-11-04T09:13:16;13.80;99.90
7206;DHT22;3644;53.480;10.004;2022-11-04T09:15:42;13.90;99.90
7206;DHT22;3644;53.480;10.004;2022-11-04T09:18:08;13.90;99.90
7206;DHT22;3644;53.480;10.004;2022-11-04T09:20:34;13.90;99.90
7206;DHT22;3644;53.480;10.004;2022-11-04T09:23:03;13.90;99.90
7206;DHT22;3644;53.480;10.004;2022-11-04T09:25:28;13.90;99.90
7206;DHT22;3644;53.480;10.004;2022-11-04T09:27:54;14.00;99.90
7206;DHT22;3644;53.480;10.004;2022-11-04T09:30:19;14.00;99.90
7206;DHT22;3644;53.480;10.004;2022-11-04T09:32:45;14.00;99.90
7206;DHT22;3644;53.480;10.004;2022-11-04T09:35:11;14.10;99.90
7206;DHT22;3644;53.480;10.004;2022-11-04T09:37:37;14.00;99.90
7206;DHT22;3644;53.480;10.004;2022-11-04T09:40:03;14.00;99.90
7206;DHT22;3644;53.480;10.004;2022-11-04T09:45:06;14.10;99.90
7206;DHT22;3644;53.480;10.004;2022-11-04T09:47:34;14.10;99.90
7206;DHT22;3644;53.480;10.004;2022-11-04T09:50:01;14.10;99.90
7206;DHT22;3644;53.480;10.004;2022-11-04T09:52:34;14.10;99.90
7206;DHT22;3644;53.480;10.004;2022-11-04T09:55:23;14.20;99.90
7206;DHT22;3644;53.480;10.004;2022-11-04T09:57:55;14.30;99.90
7206;DHT22;3644;53.480;10.004;2022-11-04T10:00:22;14.40;99.90
7206;DHT22;3644;53.480;10.004;2022-11-04T10:03:24;14.50;99.90
7206;DHT22;3644;53.480;10.004;2022-11-04T10:06:05;14.40;99.90
7206;DHT22;3644;53.480;10.004;2022-11-04T10:22:02;14.10;99.90
7206;DHT22;3644;53.480;10.004;2022-11-04T10:27:21;14.20;99.90
7206;DHT22;3644;53.480;10.004;2022-11-04T10:30:00;14.30;99.90
7206;DHT22;3644;53.480;10.004;2022-11-04T10:34:58;14.30;99.90
7206;DHT22;3644;53.480;10.004;2022-11-04T10:37:26;14.00;99.90
7206;DHT22;3644;53.480;10.004;2022-11-04T10:40:00;13.90;99.90
7206;DHT22;3644;53.480;10.004;2022-11-04T10:42:31;13.90;99.90
7206;DHT22;3644;53.480;10.004;2022-11-04T10:44:57;14.10;99.90
7206;DHT22;3644;53.480;10.004;2022-11-04T10:47:54;14.10;99.90
7206;DHT22;3644;53.480;10.004;2022-11-04T10:50:34;14.10;99.90
7206;DHT22;3644;53.480;10.004;2022-11-04T10:53:16;14.20;99.90
7206;DHT22;3644;53.480;10.004;2022-11-04T10:58:30;14.40;99.90
7206;DHT22;3644;53.480;10.004;2022-11-04T11:00:56;14.40;99.90
7206;DHT22;3644;53.480;10.004;2022-11-04T11:06:09;14.30;99.90
7206;DHT22;3644;53.480;10.004;2022-11-04T11:08:36;14.30;99.90
7206;DHT22;3644;53.480;10.004;2022-11-04T11:11:04;14.40;99.90
7206;DHT22;3644;53.480;10.004;2022-11-04T11:13:36;14.30;99.90
7206;DHT22;3644;53.480;10.004;2022-11-04T11:16:19;14.40;99.90
7206;DHT22;3644;53.480;10.004;2022-11-04T11:21:45;14.50;99.90
7206;DHT22;3644;53.480;10.004;2022-11-04T11:24:24;14.50;99.90
7206;DHT22;3644;53.480;10.004;2022-11-04T11:26:55;14.60;99.90
7206;DHT22;3644;53.480;10.004;2022-11-04T11:29:27;14.50;99.90
7206;DHT22;3644;53.480;10.004;2022-11-04T11:31:54;14.50;99.90
7206;DHT22;3644;53.480;10.004;2022-11-04T11:34:32;14.60;99.90
7206;DHT22;3644;53.480;10.004;2022-11-04T11:36:59;14.70;99.90
7206;DHT22;3644;53.480;10.004;2022-11-04T11:39:30;14.70;99.90
7206;DHT22;3644;53.480;10.004;2022-11-04T11:42:15;14.70;99.90
7206;DHT22;3644;53.480;10.004;2022-11-04T11:44:53;14.80;99.90
7206;DHT22;3644;53.480;10.004;2022-11-04T11:50:24;14.80;99.90
7206;DHT22;3644;53.480;10.004;2022-11-04T11:53:16;14.80;99.90
7206;DHT22;3644;53.480;10.004;2022-11-04T11:55:48;14.70;99.90
7206;DHT22;3644;53.480;10.004;2022-11-04T11:58:21;14.80;99.90
7206;DHT22;3644;53.480;10.004;2022-11-04T12:03:31;14.80;99.90
7206;DHT22;3644;53.480;10.004;2022-11-04T12:06:22;15.00;99.90
7206;DHT22;3644;53.480;10.004;2022-11-04T12:14:45;15.00;99.90
7206;DHT22;3644;53.480;10.004;2022-11-04T12:17:43;15.00;99.90
7206;DHT22;3644;53.480;10.004;2022-11-04T12:23:13;15.00;99.90
7206;DHT22;3644;53.480;10.004;2022-11-04T12:30:57;15.20;99.90
7206;DHT22;3644;53.480;10.004;2022-11-04T12:33:33;15.10;99.90
7206;DHT22;3644;53.480;10.004;2022-11-04T12:41:41;15.20;99.90
7206;DHT22;3644;53.480;10.004;2022-11-04T12:47:17;15.20;99.90
7206;DHT22;3644;53.480;10.004;2022-11-04T12:55:17;15.30;99.90
7206;DHT22;3644;53.480;10.004;2022-11-04T13:00:20;15.30;99.90
7206;DHT22;3644;53.480;10.004;2022-11-04T13:14:08;15.40;99.90
7206;DHT22;3644;53.480;10.004;2022-11-04T13:16:39;15.30;99.90
7206;DHT22;3644;53.480;10.004;2022-11-04T13:22:15;15.30;99.90
7206;DHT22;3644;53.480;10.004;2022-11-04T13:27:45;15.30;99.90
7206;DHT22;3644;53.480;10.004;2022-11-04T13:30:38;15.40;99.90
7206;DHT22;3644;53.480;10.004;2022-11-04T13:33:20;15.20;99.90
7206;DHT22;3644;53.480;10.004;2022-11-04T13:36:07;15.30;99.90
7206;DHT22;3644;53.480;10.004;2022-11-04T13:38:41;15.40;99.90
7206;DHT22;3644;53.480;10.004;2022-11-04T13:44:53;15.30;99.90
7206;DHT22;3644;53.480;10.004;2022-11-04T13:47:03;15.30;99.90
7206;DHT22;3644;53.480;10.004;2022-11-04T13:49:31;15.40;99.90
7206;DHT22;3644;53.480;10.004;2022-11-04T13:52:07;15.40;99.90
7206;DHT22;3644;53.480;10.004;2022-11-04T13:54:43;15.40;99.90
7206;DHT22;3644;53.480;10.004;2022-11-04T13:57:28;15.40;99.90
7206;DHT22;3644;53.480;10.004;2022-11-04T14:18:46;15.10;99.90
7206;DHT22;3644;53.480;10.004;2022-11-04T14:21:15;15.10;99.90
7206;DHT22;3644;53.480;10.004;2022-11-04T14:23:54;15.10;99.90
7206;DHT22;3644;53.480;10.004;2022-11-04T14:26:40;15.10;99.90
7206;DHT22;3644;53.480;10.004;2022-11-04T14:29:22;15.00;99.90
7206;DHT22;3644;53.480;10.004;2022-11-04T14:31:58;14.90;99.90
7206;DHT22;3644;53.480;10.004;2022-11-04T14:34:30;14.90;99.90
7206;DHT22;3644;53.480;10.004;2022-11-04T14:36:58;14.90;99.90
7206;DHT22;3644;53.480;10.004;2022-11-04T14:39:34;14.90;99.90
7206;DHT22;3644;53.480;10.004;2022-11-04T14:42:02;14.90;99.90
7206;DHT22;3644;53.480;10.004;2022-11-04T14:44:37;15.00;99.90
7206;DHT22;3644;53.480;10.004;2022-11-04T14:47:13;15.00;99.90
7206;DHT22;3644;53.480;10.004;2022-11-04T15:02:48;14.60;99.90
7206;DHT22;3644;53.480;10.004;2022-11-04T15:05:26;14.60;99.90
7206;DHT22;3644;53.480;10.004;2022-11-04T15:07:57;14.70;99.90
7206;DHT22;3644;53.480;10.004;2022-11-04T15:10:26;14.70;99.90
7206;DHT22;3644;53.480;10.004;2022-11-04T15:12:57;14.60;99.90
7206;DHT22;3644;53.480;10.004;2022-11-04T15:15:39;14.70;99.90
7206;DHT22;3644;53.480;10.004;2022-11-04T15:18:11;14.70;99.90
7206;DHT22;3644;53.480;10.004;2022-11-04T15:20:45;14.60;99.90
7206;DHT22;3644;53.480;10.004;2022-11-04T15:23:15;14.60;99.90
7206;DHT22;3644;53.480;10.004;2022-11-04T15:25:48;14.70;99.90
7206;DHT22;3644;53.480;10.004;2022-11-04T15:28:36;14.70;99.90
7206;DHT22;3644;53.480;10.004;2022-11-04T15:31:15;14.70;99.90
7206;DHT22;3644;53.480;10.004;2022-11-04T15:33:50;14.60;99.90
7206;DHT22;3644;53.480;10.004;2022-11-04T15:36:26;14.60;99.90
7206;DHT22;3644;53.480;10.004;2022-11-04T15:39:06;14.70;99.90
7206;DHT22;3644;53.480;10.004;2022-11-04T15:41:32;14.70;99.90
7206;DHT22;3644;53.480;10.004;2022-11-04T15:44:20;14.70;99.90
7206;DHT22;3644;53.480;10.004;2022-11-04T15:46:52;14.60;99.90
7206;DHT22;3644;53.480;10.004;2022-11-04T15:49:26;14.40;99.90
7206;DHT22;3644;53.480;10.004;2022-11-04T15:52:00;14.30;99.90
7206;DHT22;3644;53.480;10.004;2022-11-04T15:54:38;14.40;99.90
7206;DHT22;3644;53.480;10.004;2022-11-04T15:57:22;14.40;99.90
7206;DHT22;3644;53.480;10.004;2022-11-04T15:59:56;14.30;99.90
7206;DHT22;3644;53.480;10.004;2022-11-04T16:02:33;14.30;99.90
7206;DHT22;3644;53.480;10.004;2022-11-04T16:07:42;14.10;99.90
7206;DHT22;3644;53.480;10.004;2022-11-04T16:10:28;14.10;99.90
7206;DHT22;3644;53.480;10.004;2022-11-04T16:12:56;14.10;99.90
7206;DHT22;3644;53.480;10.004;2022-11-04T16:15:33;14.00;99.90
7206;DHT22;3644;53.480;10.004;2022-11-04T16:18:00;14.00;99.90
7206;DHT22;3644;53.480;10.004;2022-11-04T16:20:26;14.10;99.90
7206;DHT22;3644;53.480;10.004;2022-11-04T16:22:56;14.10;99.90
7206;DHT22;3644;53.480;10.004;2022-11-04T16:25:23;14.10;99.90
7206;DHT22;3644;53.480;10.004;2022-11-04T16:27:49;14.10;99.90
7206;DHT22;3644;53.480;10.004;2022-11-04T16:30:18;14.20;99.90
7206;DHT22;3644;53.480;10.004;2022-11-04T16:32:49;14.30;99.90
7206;DHT22;3644;53.480;10.004;2022-11-04T16:35:26;14.30;99.90
7206;DHT22;3644;53.480;10.004;2022-11-04T16:37:53;14.30;99.90
7206;DHT22;3644;53.480;10.004;2022-11-04T16:40:21;14.20;99.90
7206;DHT22;3644;53.480;10.004;2022-11-04T16:42:47;14.20;99.90
7206;DHT22;3644;53.480;10.004;2022-11-04T16:45:26;14.00;99.90
7206;DHT22;3644;53.480;10.004;2022-11-04T16:47:54;14.00;99.90
7206;DHT22;3644;53.480;10.004;2022-11-04T16:50:21;13.90;99.90
7206;DHT22;3644;53.480;10.004;2022-11-04T16:52:48;13.90;99.90
7206;DHT22;3644;53.480;10.004;2022-11-04T16:55:14;13.80;99.90
7206;DHT22;3644;53.480;10.004;2022-11-04T16:57:40;13.80;99.90
7206;DHT22;3644;53.480;10.004;2022-11-04T17:00:06;13.70;99.90
7206;DHT22;3644;53.480;10.004;2022-11-04T17:02:35;13.70;99.90
7206;DHT22;3644;53.480;10.004;2022-11-04T17:05:03;13.70;99.90
7206;DHT22;3644;53.480;10.004;2022-11-04T17:07:29;13.60;99.90
7206;DHT22;3644;53.480;10.004;2022-11-04T17:09:55;13.60;99.90
7206;DHT22;3644;53.480;10.004;2022-11-04T17:12:20;13.40;99.90
7206;DHT22;3644;53.480;10.004;2022-11-04T17:14:46;13.50;99.90
7206;DHT22;3644;53.480;10.004;2022-11-04T17:17:11;13.40;99.90
7206;DHT22;3644;53.480;10.004;2022-11-04T17:19:37;13.40;99.90
7206;DHT22;3644;53.480;10.004;2022-11-04T17:22:05;13.30;99.90
7206;DHT22;3644;53.480;10.004;2022-11-04T17:24:32;13.30;99.90
7206;DHT22;3644;53.480;10.004;2022-11-04T17:26:58;13.10;99.90
7206;DHT22;3644;53.480;10.004;2022-11-04T17:29:23;13.10;99.90
7206;DHT22;3644;53.480;10.004;2022-11-04T17:31:49;13.00;99.90
7206;DHT22;3644;53.480;10.004;2022-11-04T17:34:14;13.00;99.90
7206;DHT22;3644;53.480;10.004;2022-11-04T17:36:40;12.90;99.90
7206;DHT22;3644;53.480;10.004;2022-11-04T17:39:06;13.00;99.90
7206;DHT22;3644;53.480;10.004;2022-11-04T17:41:31;12.90;99.90
7206;DHT22;3644;53.480;10.004;2022-11-04T17:44:15;12.80;99.90
7206;DHT22;3644;53.480;10.004;2022-11-04T17:46:41;12.70;99.90
7206;DHT22;3644;53.480;10.004;2022-11-04T17:49:13;12.70;99.90
7206;DHT22;3644;53.480;10.004;2022-11-04T17:51:41;12.80;99.90
7206;DHT22;3644;53.480;10.004;2022-11-04T17:54:07;12.80;99.90
7206;DHT22;3644;53.480;10.004;2022-11-04T17:56:34;12.80;99.90
7206;DHT22;3644;53.480;10.004;2022-11-04T17:59:00;12.80;99.90
7206;DHT22;3644;53.480;10.004;2022-11-04T18:01:28;12.80;99.90
7206;DHT22;3644;53.480;10.004;2022-11-04T18:03:54;12.80;99.90
7206;DHT22;3644;53.480;10.004;2022-11-04T18:06:20;12.80;99.90
7206;DHT22;3644;53.480;10.004;2022-11-04T18:08:46;12.80;99.90
7206;DHT22;3644;53.480;10.004;2022-11-04T18:11:12;12.60;99.90
7206;DHT22;3644;53.480;10.004;2022-11-04T18:13:58;12.50;99.90
7206;DHT22;3644;53.480;10.004;2022-11-04T18:16:23;12.50;99.90
7206;DHT22;3644;53.480;10.004;2022-11-04T18:18:49;12.40;99.90
7206;DHT22;3644;53.480;10.004;2022-11-04T18:21:14;12.40;99.90
7206;DHT22;3644;53.480;10.004;2022-11-04T18:23:40;12.50;99.90
7206;DHT22;3644;53.480;10.004;2022-11-04T18:26:10;12.40;99.90
7206;DHT22;3644;53.480;10.004;2022-11-04T18:28:39;12.40;99.90
7206;DHT22;3644;53.480;10.004;2022-11-04T18:31:09;12.40;99.90
7206;DHT22;3644;53.480;10.004;2022-11-04T18:33:36;12.30;99.90